createdAt,value
2019-01-10T00:00:38.781Z,1019.34
2019-01-10T00:01:38.768Z,1019.31
2019-01-10T00:02:38.756Z,1019.33
2019-01-10T00:03:38.744Z,1019.33
2019-01-10T00:04:38.729Z,1019.30
2019-01-10T00:05:38.718Z,1019.32
2019-01-10T00:06:38.708Z,1019.29
2019-01-10T00:07:38.693Z,1019.31
2019-01-10T00:08:38.679Z,1019.32
2019-01-10T00:09:38.668Z,1019.30
2019-01-10T00:10:38.655Z,1019.31
2019-01-10T00:11:38.643Z,1019.37
2019-01-10T00:12:39.599Z,1019.40
2019-01-10T00:13:38.616Z,1019.40
2019-01-10T00:14:38.605Z,1019.39
2019-01-10T00:15:38.594Z,1019.33
2019-01-10T00:16:38.579Z,1019.36
2019-01-10T00:17:38.566Z,1019.33
2019-01-10T00:18:38.554Z,1019.32
2019-01-10T00:19:38.541Z,1019.36
2019-01-10T00:20:38.528Z,1019.35
2019-01-10T00:21:38.517Z,1019.34
2019-01-10T00:22:38.502Z,1019.37
2019-01-10T00:23:38.491Z,1019.37
2019-01-10T00:24:38.478Z,1019.38
2019-01-10T00:25:38.465Z,1019.37
2019-01-10T00:26:38.453Z,1019.40
2019-01-10T00:27:38.443Z,1019.42
2019-01-10T00:28:38.428Z,1019.42
2019-01-10T00:29:38.414Z,1019.42
2019-01-10T00:30:38.401Z,1019.40
2019-01-10T00:31:38.388Z,1019.51
2019-01-10T00:32:38.374Z,1019.53
2019-01-10T00:33:38.364Z,1019.50
2019-01-10T00:34:38.351Z,1019.50
2019-01-10T00:35:38.342Z,1019.51
2019-01-10T00:36:38.323Z,1019.49
2019-01-10T00:37:38.317Z,1019.50
2019-01-10T00:38:38.300Z,1019.49
2019-01-10T00:39:39.450Z,1019.49
2019-01-10T00:40:38.275Z,1019.44
2019-01-10T00:41:38.264Z,1019.42
2019-01-10T00:42:38.249Z,1019.43
2019-01-10T00:43:38.236Z,1019.40
2019-01-10T00:44:38.223Z,1019.41
2019-01-10T00:45:38.210Z,1019.41
2019-01-10T00:46:38.199Z,1019.42
2019-01-10T00:47:38.184Z,1019.49
2019-01-10T00:48:38.171Z,1019.48
2019-01-10T00:49:38.157Z,1019.43
2019-01-10T00:50:38.147Z,1019.46
2019-01-10T00:51:38.132Z,1019.48
2019-01-10T00:52:38.120Z,1019.54
2019-01-10T00:53:38.109Z,1019.54
2019-01-10T00:54:38.095Z,1019.53
2019-01-10T00:55:38.085Z,1019.54
2019-01-10T00:56:38.069Z,1019.55
2019-01-10T00:57:38.058Z,1019.59
2019-01-10T00:58:38.043Z,1019.61
2019-01-10T00:59:38.031Z,1019.55
2019-01-10T01:00:38.017Z,1019.57
2019-01-10T01:01:38.004Z,1019.56
2019-01-10T01:02:37.993Z,1019.57
2019-01-10T01:03:37.979Z,1019.56
2019-01-10T01:04:37.965Z,1019.57
2019-01-10T01:05:37.953Z,1019.60
2019-01-10T01:06:37.944Z,1019.60
2019-01-10T01:07:37.927Z,1019.60
2019-01-10T01:08:37.913Z,1019.58
2019-01-10T01:09:37.900Z,1019.64
2019-01-10T01:10:37.887Z,1019.63
2019-01-10T01:11:37.875Z,1019.63
2019-01-10T01:12:37.918Z,1019.68
2019-01-10T01:13:37.847Z,1019.67
2019-01-10T01:14:37.835Z,1019.64
2019-01-10T01:15:37.823Z,1019.69
2019-01-10T01:16:37.807Z,1019.62
2019-01-10T01:17:37.797Z,1019.63
2019-01-10T01:18:37.784Z,1019.66
2019-01-10T01:19:37.771Z,1019.68
2019-01-10T01:20:37.757Z,1019.70
2019-01-10T01:21:37.744Z,1019.72
2019-01-10T01:22:37.732Z,1019.72
2019-01-10T01:23:37.718Z,1019.79
2019-01-10T01:24:37.705Z,1019.79
2019-01-10T01:25:37.691Z,1019.76
2019-01-10T01:26:37.677Z,1019.77
2019-01-10T01:27:37.666Z,1019.77
2019-01-10T01:28:37.654Z,1019.82
2019-01-10T01:29:37.639Z,1019.80
2019-01-10T01:30:37.626Z,1019.89
2019-01-10T01:31:37.613Z,1019.86
2019-01-10T01:32:37.599Z,1019.80
2019-01-10T01:33:37.586Z,1019.89
2019-01-10T01:34:37.574Z,1019.85
2019-01-10T01:35:37.562Z,1019.86
2019-01-10T01:36:37.550Z,1019.82
2019-01-10T01:37:37.535Z,1019.85
2019-01-10T01:38:37.524Z,1019.83
2019-01-10T01:39:37.509Z,1019.83
2019-01-10T01:40:37.494Z,1019.86
2019-01-10T01:41:37.481Z,1019.86
2019-01-10T01:42:37.470Z,1019.81
2019-01-10T01:43:37.456Z,1019.89
2019-01-10T01:44:37.444Z,1019.88
2019-01-10T01:45:37.429Z,1019.96
2019-01-10T01:46:37.416Z,1019.97
2019-01-10T01:47:37.403Z,1019.98
2019-01-10T01:48:37.389Z,1019.98
2019-01-10T01:49:37.378Z,1020.01
2019-01-10T01:50:37.365Z,1019.98
2019-01-10T01:51:37.352Z,1020.02
2019-01-10T01:52:37.338Z,1020.15
2019-01-10T01:53:37.326Z,1020.11
2019-01-10T01:54:37.313Z,1020.14
2019-01-10T01:55:37.301Z,1020.16
2019-01-10T01:56:37.289Z,1020.20
2019-01-10T01:57:37.271Z,1020.16
2019-01-10T01:58:37.260Z,1020.22
2019-01-10T01:59:37.248Z,1020.24
2019-01-10T02:00:37.234Z,1020.18
2019-01-10T02:01:37.221Z,1020.21
2019-01-10T02:02:37.298Z,1020.24
2019-01-10T02:03:37.198Z,1020.27
2019-01-10T02:04:37.185Z,1020.23
2019-01-10T02:05:37.170Z,1020.21
2019-01-10T02:06:37.158Z,1020.19
2019-01-10T02:07:37.145Z,1020.19
2019-01-10T02:08:37.130Z,1020.21
2019-01-10T02:09:37.118Z,1020.20
2019-01-10T02:10:37.105Z,1020.18
2019-01-10T02:11:37.199Z,1020.23
2019-01-10T02:12:37.079Z,1020.24
2019-01-10T02:13:37.067Z,1020.18
2019-01-10T02:14:37.055Z,1020.16
2019-01-10T02:15:37.045Z,1020.16
2019-01-10T02:16:37.029Z,1020.18
2019-01-10T02:17:37.018Z,1020.25
2019-01-10T02:18:37.005Z,1020.22
2019-01-10T02:19:36.991Z,1020.24
2019-01-10T02:20:36.976Z,1020.26
2019-01-10T02:21:36.963Z,1020.24
2019-01-10T02:22:38.589Z,1020.24
2019-01-10T02:23:36.934Z,1020.22
2019-01-10T02:24:36.920Z,1020.33
2019-01-10T02:25:36.910Z,1020.34
2019-01-10T02:26:36.895Z,1020.30
2019-01-10T02:27:36.886Z,1020.35
2019-01-10T02:28:36.874Z,1020.38
2019-01-10T02:29:36.862Z,1020.34
2019-01-10T02:30:41.835Z,1020.35
2019-01-10T02:31:36.832Z,1020.36
2019-01-10T02:32:36.820Z,1020.35
2019-01-10T02:33:36.810Z,1020.33
2019-01-10T02:34:36.798Z,1020.31
2019-01-10T02:35:36.792Z,1020.28
2019-01-10T02:36:36.767Z,1020.30
2019-01-10T02:37:36.755Z,1020.29
2019-01-10T02:38:36.741Z,1020.36
2019-01-10T02:39:36.734Z,1020.40
2019-01-10T02:40:36.719Z,1020.41
2019-01-10T02:41:36.706Z,1020.40
2019-01-10T02:42:36.695Z,1020.30
2019-01-10T02:43:36.683Z,1020.28
2019-01-10T02:44:36.664Z,1020.28
2019-01-10T02:45:36.654Z,1020.27
2019-01-10T02:46:36.640Z,1020.31
2019-01-10T02:47:36.632Z,1020.37
2019-01-10T02:48:36.621Z,1020.36
2019-01-10T02:49:36.605Z,1020.36
2019-01-10T02:50:36.591Z,1020.38
2019-01-10T02:51:36.583Z,1020.39
2019-01-10T02:52:36.566Z,1020.43
2019-01-10T02:53:36.554Z,1020.42
2019-01-10T02:54:36.547Z,1020.41
2019-01-10T02:55:36.523Z,1020.44
2019-01-10T02:56:36.510Z,1020.47
2019-01-10T02:57:36.513Z,1020.50
2019-01-10T02:58:36.484Z,1020.54
2019-01-10T02:59:36.483Z,1020.48
2019-01-10T03:00:36.465Z,1020.54
2019-01-10T03:01:36.452Z,1020.53
2019-01-10T03:02:36.454Z,1020.53
2019-01-10T03:03:36.421Z,1020.55
2019-01-10T03:04:36.409Z,1020.51
2019-01-10T03:05:36.401Z,1020.51
2019-01-10T03:06:36.392Z,1020.56
2019-01-10T03:07:36.369Z,1020.60
2019-01-10T03:08:36.452Z,1020.54
2019-01-10T03:09:36.390Z,1020.51
2019-01-10T03:10:36.338Z,1020.53
2019-01-10T03:11:36.321Z,1020.46
2019-01-10T03:12:36.309Z,1020.50
2019-01-10T03:13:37.116Z,1020.51
2019-01-10T03:14:36.290Z,1020.42
2019-01-10T03:15:36.269Z,1020.45
2019-01-10T03:16:36.257Z,1020.39
2019-01-10T03:17:36.242Z,1020.41
2019-01-10T03:18:36.234Z,1020.46
2019-01-10T03:19:36.221Z,1020.44
2019-01-10T03:20:36.207Z,1020.46
2019-01-10T03:21:36.188Z,1020.45
2019-01-10T03:22:36.176Z,1020.42
2019-01-10T03:23:36.169Z,1020.49
2019-01-10T03:24:36.155Z,1020.50
2019-01-10T03:25:36.145Z,1020.52
2019-01-10T03:26:36.132Z,1020.53
2019-01-10T03:27:36.111Z,1020.51
2019-01-10T03:28:36.101Z,1020.48
2019-01-10T03:29:36.087Z,1020.48
2019-01-10T03:30:36.076Z,1020.46
2019-01-10T03:31:36.067Z,1020.53
2019-01-10T03:32:36.054Z,1020.51
2019-01-10T03:33:36.039Z,1020.54
2019-01-10T03:34:36.026Z,1020.50
2019-01-10T03:35:36.009Z,1020.50
2019-01-10T03:36:36.003Z,1020.46
2019-01-10T03:37:35.987Z,1020.45
2019-01-10T03:38:35.973Z,1020.44
2019-01-10T03:39:35.957Z,1020.43
2019-01-10T03:40:35.944Z,1020.44
2019-01-10T03:41:35.931Z,1020.45
2019-01-10T03:42:35.918Z,1020.43
2019-01-10T03:43:35.910Z,1020.48
2019-01-10T03:44:35.896Z,1020.48
2019-01-10T03:45:35.884Z,1020.49
2019-01-10T03:46:35.870Z,1020.47
2019-01-10T03:47:35.860Z,1020.42
2019-01-10T03:48:35.839Z,1020.41
2019-01-10T03:49:35.828Z,1020.42
2019-01-10T03:50:37.856Z,1020.42
2019-01-10T03:51:35.806Z,1020.41
2019-01-10T03:52:35.793Z,1020.46
2019-01-10T03:53:35.778Z,1020.44
2019-01-10T03:54:35.761Z,1020.46
2019-01-10T03:55:35.755Z,1020.45
2019-01-10T03:56:35.740Z,1020.40
2019-01-10T03:57:35.727Z,1020.44
2019-01-10T03:58:35.717Z,1020.48
2019-01-10T03:59:35.706Z,1020.53
2019-01-10T04:00:35.684Z,1020.50
2019-01-10T04:01:35.671Z,1020.51
2019-01-10T04:02:35.670Z,1020.47
2019-01-10T04:03:35.652Z,1020.45
2019-01-10T04:04:35.635Z,1020.49
2019-01-10T04:05:35.623Z,1020.57
2019-01-10T04:06:35.610Z,1020.47
2019-01-10T04:07:35.600Z,1020.48
2019-01-10T04:08:35.580Z,1020.53
2019-01-10T04:09:35.571Z,1020.56
2019-01-10T04:10:35.559Z,1020.48
2019-01-10T04:11:35.547Z,1020.48
2019-01-10T04:12:35.532Z,1020.50
2019-01-10T04:13:35.518Z,1020.50
2019-01-10T04:14:35.503Z,1020.47
2019-01-10T04:15:35.500Z,1020.55
2019-01-10T04:16:35.482Z,1020.57
2019-01-10T04:17:35.475Z,1020.54
2019-01-10T04:18:35.463Z,1020.53
2019-01-10T04:19:35.439Z,1020.54
2019-01-10T04:20:35.435Z,1020.55
2019-01-10T04:21:35.413Z,1020.59
2019-01-10T04:22:35.399Z,1020.58
2019-01-10T04:23:35.392Z,1020.59
2019-01-10T04:24:35.383Z,1020.58
2019-01-10T04:25:35.363Z,1020.54
2019-01-10T04:26:35.350Z,1020.48
2019-01-10T04:27:35.341Z,1020.55
2019-01-10T04:28:35.328Z,1020.55
2019-01-10T04:29:35.313Z,1020.51
2019-01-10T04:30:35.301Z,1020.55
2019-01-10T04:31:35.285Z,1020.58
2019-01-10T04:32:35.270Z,1020.53
2019-01-10T04:33:35.258Z,1020.55
2019-01-10T04:34:35.246Z,1020.55
2019-01-10T04:35:35.238Z,1020.56
2019-01-10T04:36:35.224Z,1020.59
2019-01-10T04:37:35.211Z,1020.55
2019-01-10T04:38:35.200Z,1020.57
2019-01-10T04:39:35.182Z,1020.60
2019-01-10T04:40:35.167Z,1020.59
2019-01-10T04:41:35.162Z,1020.55
2019-01-10T04:42:35.148Z,1020.64
2019-01-10T04:43:35.131Z,1020.62
2019-01-10T04:44:35.118Z,1020.62
2019-01-10T04:45:35.103Z,1020.61
2019-01-10T04:46:35.093Z,1020.67
2019-01-10T04:47:35.086Z,1020.64
2019-01-10T04:48:35.070Z,1020.68
2019-01-10T04:49:35.058Z,1020.69
2019-01-10T04:50:35.044Z,1020.74
2019-01-10T04:51:35.027Z,1020.72
2019-01-10T04:52:35.015Z,1020.71
2019-01-10T04:53:35.001Z,1020.72
2019-01-10T04:54:38.338Z,1020.67
2019-01-10T04:55:34.980Z,1020.76
2019-01-10T04:56:34.966Z,1020.72
2019-01-10T04:57:34.949Z,1020.74
2019-01-10T04:58:34.937Z,1020.74
2019-01-10T04:59:34.929Z,1020.75
2019-01-10T05:00:34.919Z,1020.77
2019-01-10T05:01:34.902Z,1020.77
2019-01-10T05:02:34.888Z,1020.78
2019-01-10T05:03:34.874Z,1020.73
2019-01-10T05:04:34.858Z,1020.72
2019-01-10T05:05:34.845Z,1020.73
2019-01-10T05:06:34.832Z,1020.76
2019-01-10T05:07:34.824Z,1020.76
2019-01-10T05:08:34.810Z,1020.73
2019-01-10T05:09:34.799Z,1020.78
2019-01-10T05:10:34.786Z,1020.78
2019-01-10T05:11:34.768Z,1020.74
2019-01-10T05:12:34.754Z,1020.75
2019-01-10T05:13:34.746Z,1020.73
2019-01-10T05:14:34.844Z,1020.66
2019-01-10T05:15:34.715Z,1020.71
2019-01-10T05:16:34.700Z,1020.71
2019-01-10T05:17:34.687Z,1020.69
2019-01-10T05:18:34.678Z,1020.73
2019-01-10T05:19:34.667Z,1020.75
2019-01-10T05:20:34.655Z,1020.67
2019-01-10T05:21:34.640Z,1020.70
2019-01-10T05:22:34.627Z,1020.74
2019-01-10T05:23:34.614Z,1020.76
2019-01-10T05:24:34.601Z,1020.71
2019-01-10T05:25:34.583Z,1020.75
2019-01-10T05:26:34.570Z,1020.75
2019-01-10T05:27:34.562Z,1020.72
2019-01-10T05:28:34.555Z,1020.76
2019-01-10T05:29:34.530Z,1020.71
2019-01-10T05:30:34.518Z,1020.72
2019-01-10T05:31:34.510Z,1020.73
2019-01-10T05:32:34.496Z,1020.68
2019-01-10T05:33:34.484Z,1020.69
2019-01-10T05:34:34.471Z,1020.71
2019-01-10T05:35:34.453Z,1020.70
2019-01-10T05:36:34.438Z,1020.75
2019-01-10T05:37:34.426Z,1020.77
2019-01-10T05:38:34.414Z,1020.77
2019-01-10T05:39:34.404Z,1020.80
2019-01-10T05:40:34.394Z,1020.74
2019-01-10T05:41:34.378Z,1020.75
2019-01-10T05:42:34.365Z,1020.68
2019-01-10T05:43:34.347Z,1020.76
2019-01-10T05:44:34.341Z,1020.71
2019-01-10T05:45:34.325Z,1020.70
2019-01-10T05:46:34.313Z,1020.78
2019-01-10T05:47:34.296Z,1020.74
2019-01-10T05:48:34.281Z,1020.72
2019-01-10T05:49:34.269Z,1020.73
2019-01-10T05:50:34.259Z,1020.74
2019-01-10T05:51:34.257Z,1020.79
2019-01-10T05:52:34.235Z,1020.77
2019-01-10T05:53:34.222Z,1020.81
2019-01-10T05:54:34.209Z,1020.77
2019-01-10T05:55:34.192Z,1020.73
2019-01-10T05:56:34.178Z,1020.68
2019-01-10T05:57:34.164Z,1020.73
2019-01-10T05:58:34.152Z,1020.70
2019-01-10T05:59:34.145Z,1020.71
2019-01-10T06:00:34.128Z,1020.75
2019-01-10T06:01:34.112Z,1020.78
2019-01-10T06:02:34.105Z,1020.78
2019-01-10T06:03:34.090Z,1020.78
2019-01-10T06:04:34.076Z,1020.79
2019-01-10T06:05:34.064Z,1020.80
2019-01-10T06:06:34.051Z,1020.85
2019-01-10T06:07:34.034Z,1020.90
2019-01-10T06:08:34.027Z,1020.93
2019-01-10T06:09:34.008Z,1020.97
2019-01-10T06:10:33.998Z,1020.94
2019-01-10T06:11:33.986Z,1020.94
2019-01-10T06:12:33.972Z,1020.97
2019-01-10T06:13:33.959Z,1020.96
2019-01-10T06:14:35.796Z,1021.06
2019-01-10T06:15:33.931Z,1021.02
2019-01-10T06:16:33.915Z,1021.01
2019-01-10T06:17:33.907Z,1021.04
2019-01-10T06:18:33.893Z,1021.00
2019-01-10T06:19:33.875Z,1021.00
2019-01-10T06:20:33.862Z,1021.04
2019-01-10T06:21:33.873Z,1021.04
2019-01-10T06:22:33.837Z,1021.04
2019-01-10T06:23:33.829Z,1021.04
2019-01-10T06:24:33.813Z,1021.04
2019-01-10T06:25:33.802Z,1021.10
2019-01-10T06:26:33.789Z,1021.10
2019-01-10T06:27:33.771Z,1021.18
2019-01-10T06:28:33.756Z,1021.14
2019-01-10T06:29:33.743Z,1021.12
2019-01-10T06:30:33.732Z,1021.15
2019-01-10T06:31:33.721Z,1021.16
2019-01-10T06:32:33.708Z,1021.22
2019-01-10T06:33:33.691Z,1021.24
2019-01-10T06:34:33.678Z,1021.18
2019-01-10T06:35:33.669Z,1021.19
2019-01-10T06:36:33.654Z,1021.27
2019-01-10T06:37:33.640Z,1021.26
2019-01-10T06:38:33.629Z,1021.28
2019-01-10T06:39:33.642Z,1021.33
2019-01-10T06:40:33.598Z,1021.30
2019-01-10T06:41:33.583Z,1021.31
2019-01-10T06:42:33.576Z,1021.34
2019-01-10T06:43:33.563Z,1021.37
2019-01-10T06:44:33.549Z,1021.37
2019-01-10T06:45:33.535Z,1021.38
2019-01-10T06:46:33.523Z,1021.35
2019-01-10T06:47:33.505Z,1021.40
2019-01-10T06:48:33.490Z,1021.34
2019-01-10T06:49:33.482Z,1021.38
2019-01-10T06:50:33.468Z,1021.34
2019-01-10T06:51:33.451Z,1021.38
2019-01-10T06:52:33.438Z,1021.37
2019-01-10T06:53:33.427Z,1021.39
2019-01-10T06:54:33.412Z,1021.36
2019-01-10T06:55:33.404Z,1021.40
2019-01-10T06:56:33.390Z,1021.38
2019-01-10T06:57:33.379Z,1021.34
2019-01-10T06:58:33.363Z,1021.36
2019-01-10T06:59:33.345Z,1021.37
2019-01-10T07:00:33.332Z,1021.39
2019-01-10T07:01:33.318Z,1021.39
2019-01-10T07:02:33.306Z,1021.39
2019-01-10T07:03:33.296Z,1021.43
2019-01-10T07:04:33.282Z,1021.47
2019-01-10T07:05:33.265Z,1021.44
2019-01-10T07:06:33.253Z,1021.39
2019-01-10T07:07:33.244Z,1021.45
2019-01-10T07:08:33.230Z,1021.45
2019-01-10T07:09:33.217Z,1021.45
2019-01-10T07:10:33.204Z,1021.47
2019-01-10T07:11:33.187Z,1021.48
2019-01-10T07:12:33.173Z,1021.46
2019-01-10T07:13:33.160Z,1021.52
2019-01-10T07:14:33.146Z,1021.49
2019-01-10T07:15:33.138Z,1021.52
2019-01-10T07:16:33.125Z,1021.50
2019-01-10T07:17:33.110Z,1021.49
2019-01-10T07:18:33.099Z,1021.53
2019-01-10T07:19:33.080Z,1021.56
2019-01-10T07:20:33.069Z,1021.59
2019-01-10T07:21:33.057Z,1021.57
2019-01-10T07:22:33.076Z,1021.58
2019-01-10T07:23:33.027Z,1021.58
2019-01-10T07:24:33.013Z,1021.61
2019-01-10T07:25:33.003Z,1021.62
2019-01-10T07:26:32.993Z,1021.63
2019-01-10T07:27:32.981Z,1021.60
2019-01-10T07:28:32.966Z,1021.62
2019-01-10T07:29:32.956Z,1021.62
2019-01-10T07:30:36.149Z,1021.64
2019-01-10T07:31:32.922Z,1021.64
2019-01-10T07:32:32.909Z,1021.63
2019-01-10T07:33:32.898Z,1021.67
2019-01-10T07:34:32.885Z,1021.65
2019-01-10T07:35:32.875Z,1021.70
2019-01-10T07:36:32.860Z,1021.66
2019-01-10T07:37:32.845Z,1021.63
2019-01-10T07:38:32.830Z,1021.66
2019-01-10T07:39:32.823Z,1021.66
2019-01-10T07:40:32.810Z,1021.67
2019-01-10T07:41:32.796Z,1021.73
2019-01-10T07:42:32.783Z,1021.71
2019-01-10T07:43:32.767Z,1021.75
2019-01-10T07:44:32.751Z,1021.76
2019-01-10T07:45:32.740Z,1021.74
2019-01-10T07:46:32.725Z,1021.74
2019-01-10T07:47:32.718Z,1021.71
2019-01-10T07:48:32.705Z,1021.71
2019-01-10T07:49:32.691Z,1021.69
2019-01-10T07:50:32.680Z,1021.69
2019-01-10T07:51:32.664Z,1021.67
2019-01-10T07:52:32.648Z,1021.70
2019-01-10T07:53:32.639Z,1021.71
2019-01-10T07:54:32.627Z,1021.69
2019-01-10T07:55:32.609Z,1021.69
2019-01-10T07:56:32.594Z,1021.73
2019-01-10T07:57:32.583Z,1021.75
2019-01-10T07:58:32.569Z,1021.74
2019-01-10T07:59:32.561Z,1021.75
2019-01-10T08:00:32.547Z,1021.72
2019-01-10T08:01:32.534Z,1021.71
2019-01-10T08:02:32.521Z,1021.68
2019-01-10T08:03:32.506Z,1021.65
2019-01-10T08:04:32.493Z,1021.71
2019-01-10T08:05:32.479Z,1021.74
2019-01-10T08:06:32.465Z,1021.73
2019-01-10T08:07:32.460Z,1021.79
2019-01-10T08:08:32.445Z,1021.80
2019-01-10T08:09:32.427Z,1021.81
2019-01-10T08:10:32.421Z,1021.73
2019-01-10T08:11:32.407Z,1021.75
2019-01-10T08:12:32.393Z,1021.83
2019-01-10T08:13:32.380Z,1021.81
2019-01-10T08:14:32.367Z,1021.82
2019-01-10T08:15:32.350Z,1021.86
2019-01-10T08:16:32.336Z,1021.87
2019-01-10T08:17:32.325Z,1021.86
2019-01-10T08:18:32.311Z,1021.92
2019-01-10T08:19:32.303Z,1021.86
2019-01-10T08:20:32.290Z,1021.91
2019-01-10T08:21:32.278Z,1021.89
2019-01-10T08:22:32.266Z,1021.90
2019-01-10T08:23:32.248Z,1021.93
2019-01-10T08:24:32.235Z,1021.95
2019-01-10T08:25:32.227Z,1022.00
2019-01-10T08:26:32.214Z,1022.00
2019-01-10T08:27:32.197Z,1022.08
2019-01-10T08:28:32.183Z,1022.07
2019-01-10T08:29:33.563Z,1022.07
2019-01-10T08:30:32.159Z,1022.14
2019-01-10T08:31:32.155Z,1022.10
2019-01-10T08:32:32.137Z,1022.11
2019-01-10T08:33:32.134Z,1022.10
2019-01-10T08:34:32.113Z,1022.15
2019-01-10T08:35:32.095Z,1022.17
2019-01-10T08:36:32.865Z,1022.23
2019-01-10T08:37:32.070Z,1022.25
2019-01-10T08:38:32.057Z,1022.25
2019-01-10T08:39:32.054Z,1022.28
2019-01-10T08:40:32.036Z,1022.28
2019-01-10T08:41:32.018Z,1022.29
2019-01-10T08:42:32.006Z,1022.36
2019-01-10T08:43:31.999Z,1022.30
2019-01-10T08:44:33.626Z,1022.30
2019-01-10T08:45:31.973Z,1022.28
2019-01-10T08:46:31.962Z,1022.31
2019-01-10T08:47:31.944Z,1022.30
2019-01-10T08:48:31.931Z,1022.34
2019-01-10T08:49:31.918Z,1022.36
2019-01-10T08:50:31.908Z,1022.30
2019-01-10T08:51:31.899Z,1022.35
2019-01-10T08:52:31.885Z,1022.37
2019-01-10T08:53:31.873Z,1022.43
2019-01-10T08:54:31.860Z,1022.43
2019-01-10T08:55:31.903Z,1022.34
2019-01-10T08:56:31.830Z,1022.33
2019-01-10T08:57:31.822Z,1022.34
2019-01-10T08:58:31.811Z,1022.35
2019-01-10T08:59:31.793Z,1022.37
2019-01-10T09:00:31.780Z,1022.42
2019-01-10T09:01:31.768Z,1022.39
2019-01-10T09:02:31.756Z,1022.38
2019-01-10T09:03:31.748Z,1022.45
2019-01-10T09:04:31.735Z,1022.43
2019-01-10T09:05:31.813Z,1022.46
2019-01-10T09:06:31.713Z,1022.51
2019-01-10T09:07:31.692Z,1022.53
2019-01-10T09:08:31.683Z,1022.46
2019-01-10T09:09:31.667Z,1022.43
2019-01-10T09:10:31.655Z,1022.50
2019-01-10T09:11:31.648Z,1022.46
2019-01-10T09:12:31.634Z,1022.46
2019-01-10T09:13:31.619Z,1022.48
2019-01-10T09:14:31.606Z,1022.52
2019-01-10T09:15:34.668Z,1022.46
2019-01-10T09:16:31.585Z,1022.40
2019-01-10T09:17:31.573Z,1022.44
2019-01-10T09:18:31.561Z,1022.44
2019-01-10T09:19:31.543Z,1022.44
2019-01-10T09:20:31.531Z,1022.46
2019-01-10T09:21:31.523Z,1022.45
2019-01-10T09:22:31.506Z,1022.45
2019-01-10T09:23:31.505Z,1022.38
2019-01-10T09:24:31.488Z,1022.36
2019-01-10T09:25:31.476Z,1022.38
2019-01-10T09:26:37.707Z,1022.39
2019-01-10T09:27:31.446Z,1022.31
2019-01-10T09:28:31.432Z,1022.35
2019-01-10T09:29:31.424Z,1022.34
2019-01-10T09:30:31.414Z,1022.34
2019-01-10T09:31:31.397Z,1022.37
2019-01-10T09:32:31.384Z,1022.41
2019-01-10T09:33:31.373Z,1022.41
2019-01-10T09:34:31.361Z,1022.54
2019-01-10T09:35:31.353Z,1022.53
2019-01-10T09:36:31.349Z,1022.56
2019-01-10T09:37:31.332Z,1022.64
2019-01-10T09:38:31.316Z,1022.70
2019-01-10T09:39:31.300Z,1022.70
2019-01-10T09:40:31.288Z,1022.63
2019-01-10T09:41:31.276Z,1022.68
2019-01-10T09:42:31.265Z,1022.67
2019-01-10T09:43:31.258Z,1022.66
2019-01-10T09:44:31.245Z,1022.61
2019-01-10T09:45:31.229Z,1022.65
2019-01-10T09:46:31.217Z,1022.57
2019-01-10T09:47:31.211Z,1022.63
2019-01-10T09:48:31.199Z,1022.63
2019-01-10T09:49:31.186Z,1022.60
2019-01-10T09:50:31.174Z,1022.61
2019-01-10T09:51:31.157Z,1022.61
2019-01-10T09:52:31.145Z,1022.60
2019-01-10T09:53:31.136Z,1022.58
2019-01-10T09:54:31.123Z,1022.66
2019-01-10T09:55:31.116Z,1022.69
2019-01-10T09:56:31.104Z,1022.68
2019-01-10T09:57:31.092Z,1022.65
2019-01-10T09:58:31.092Z,1022.62
2019-01-10T09:59:31.063Z,1022.62
2019-01-10T10:00:31.114Z,1022.61
2019-01-10T10:01:31.044Z,1022.62
2019-01-10T10:02:31.034Z,1022.64
2019-01-10T10:03:31.018Z,1022.62
2019-01-10T10:04:31.006Z,1022.65
2019-01-10T10:05:30.996Z,1022.67
2019-01-10T10:06:30.985Z,1022.68
2019-01-10T10:07:30.976Z,1022.65
2019-01-10T10:08:30.962Z,1022.69
2019-01-10T10:09:30.952Z,1022.73
2019-01-10T10:10:30.940Z,1022.68
2019-01-10T10:11:34.250Z,1022.73
2019-01-10T10:12:30.912Z,1022.76
2019-01-10T10:13:30.902Z,1022.73
2019-01-10T10:14:30.892Z,1022.76
2019-01-10T10:15:30.884Z,1022.74
2019-01-10T10:16:30.872Z,1022.77
2019-01-10T10:17:30.889Z,1022.78
2019-01-10T10:18:30.845Z,1022.84
2019-01-10T10:19:30.841Z,1022.81
2019-01-10T10:20:30.827Z,1022.78
2019-01-10T10:21:30.815Z,1022.82
2019-01-10T10:22:30.803Z,1022.77
2019-01-10T10:23:30.788Z,1022.82
2019-01-10T10:24:30.778Z,1022.87
2019-01-10T10:25:30.766Z,1022.84
2019-01-10T10:26:30.755Z,1022.84
2019-01-10T10:27:30.747Z,1022.80
2019-01-10T10:28:30.736Z,1022.87
2019-01-10T10:29:30.726Z,1022.83
2019-01-10T10:30:30.715Z,1022.79
2019-01-10T10:31:30.698Z,1022.85
2019-01-10T10:32:30.686Z,1022.89
2019-01-10T10:33:30.681Z,1022.81
2019-01-10T10:34:30.673Z,1022.85
2019-01-10T10:35:30.655Z,1022.80
2019-01-10T10:36:30.643Z,1022.78
2019-01-10T10:37:30.631Z,1022.82
2019-01-10T10:38:30.628Z,1022.84
2019-01-10T10:39:30.614Z,1022.80
2019-01-10T10:40:30.603Z,1022.78
2019-01-10T10:41:30.595Z,1022.75
2019-01-10T10:42:30.583Z,1022.82
2019-01-10T10:43:30.571Z,1022.82
2019-01-10T10:44:30.555Z,1022.81
2019-01-10T10:45:30.545Z,1022.75
2019-01-10T10:46:30.534Z,1022.73
2019-01-10T10:47:30.526Z,1022.67
2019-01-10T10:48:30.516Z,1022.73
2019-01-10T10:49:30.501Z,1022.71
2019-01-10T10:50:30.494Z,1022.72
2019-01-10T10:51:30.484Z,1022.76
2019-01-10T10:52:30.504Z,1022.75
2019-01-10T10:53:30.461Z,1022.75
2019-01-10T10:54:30.452Z,1022.76
2019-01-10T10:55:30.436Z,1022.80
2019-01-10T10:56:30.424Z,1022.79
2019-01-10T10:57:30.418Z,1022.78
2019-01-10T10:58:30.407Z,1022.81
2019-01-10T10:59:30.397Z,1022.75
2019-01-10T11:00:30.388Z,1022.80
2019-01-10T11:01:30.373Z,1022.78
2019-01-10T11:02:30.366Z,1022.80
2019-01-10T11:03:30.348Z,1022.84
2019-01-10T11:04:30.337Z,1022.81
2019-01-10T11:05:30.331Z,1022.87
2019-01-10T11:06:30.319Z,1022.86
2019-01-10T11:07:30.303Z,1022.75
2019-01-10T11:08:30.291Z,1022.85
2019-01-10T11:09:30.282Z,1022.88
2019-01-10T11:10:30.271Z,1022.84
2019-01-10T11:11:30.265Z,1022.87
2019-01-10T11:12:30.254Z,1022.81
2019-01-10T11:13:30.243Z,1022.84
2019-01-10T11:14:30.232Z,1022.81
2019-01-10T11:15:30.217Z,1022.81
2019-01-10T11:16:30.206Z,1022.81
2019-01-10T11:17:30.194Z,1022.84
2019-01-10T11:18:30.184Z,1022.84
2019-01-10T11:19:30.178Z,1022.82
2019-01-10T11:20:30.166Z,1022.79
2019-01-10T11:21:30.151Z,1022.82
2019-01-10T11:22:30.140Z,1022.85
2019-01-10T11:23:30.138Z,1022.86
2019-01-10T11:24:30.122Z,1022.86
2019-01-10T11:25:30.112Z,1022.72
2019-01-10T11:26:30.102Z,1022.74
2019-01-10T11:27:30.090Z,1022.77
2019-01-10T11:28:30.074Z,1022.73
2019-01-10T11:29:30.064Z,1022.71
2019-01-10T11:30:30.052Z,1022.75
2019-01-10T11:31:30.047Z,1022.74
2019-01-10T11:32:30.040Z,1022.69
2019-01-10T11:33:30.037Z,1022.70
2019-01-10T11:34:30.014Z,1022.76
2019-01-10T11:35:29.999Z,1022.74
2019-01-10T11:36:29.988Z,1022.74
2019-01-10T11:37:30.006Z,1022.74
2019-01-10T11:38:29.971Z,1022.73
2019-01-10T11:39:29.954Z,1022.71
2019-01-10T11:40:29.943Z,1022.67
2019-01-10T11:41:29.932Z,1022.62
2019-01-10T11:42:29.922Z,1022.61
2019-01-10T11:43:29.917Z,1022.58
2019-01-10T11:44:29.907Z,1022.58
2019-01-10T11:45:29.894Z,1022.59
2019-01-10T11:46:29.884Z,1022.62
2019-01-10T11:47:29.868Z,1022.62
2019-01-10T11:48:29.861Z,1022.59
2019-01-10T11:49:29.846Z,1022.54
2019-01-10T11:50:29.838Z,1022.59
2019-01-10T11:51:29.831Z,1022.61
2019-01-10T11:52:29.820Z,1022.64
2019-01-10T11:53:35.482Z,1022.63
2019-01-10T11:54:29.795Z,1022.60
2019-01-10T11:55:29.789Z,1022.59
2019-01-10T11:56:29.778Z,1022.56
2019-01-10T11:57:29.766Z,1022.58
2019-01-10T11:58:29.759Z,1022.53
2019-01-10T11:59:29.743Z,1022.56
2019-01-10T12:00:29.732Z,1022.48
2019-01-10T12:01:29.722Z,1022.46
2019-01-10T12:02:36.271Z,1022.43
2019-01-10T12:03:29.708Z,1022.43
2019-01-10T12:04:29.693Z,1022.51
2019-01-10T12:05:29.686Z,1022.54